FUEL COST

JET-A w/FSII- $3.45
AVGAS- $4.71

NEW HANGARS COMING›››

Calendar/SPECIAL EVENTS ›››

man showing girl the cockpit

SFRA ALERT ›››

Updated every 20 minutes
KFME 230433Z AUTO 00000KT 5SM CLR 21/20 A2996

ELV. 150'
3000 X 75

RWY 28 LP
RWY 10 RP
PA 1000 msl

CTAF 123.05
AWOS-3 123.925

Activate MIRL-CTAF
Beacon Green-White

Tipton Airport is within the Washington DC SFRA, You must,  at a MINIMUM, do these four things!

1. file a flight plan with FSS,
2. have a working transponder,
3. maintain radio communications with ATC,
4. receive a unique code from ATC   for all flights in, out, or within the SFRA.

For more information, go to  FAA.gov


What’s all that digging you ask….

Today we are extending the water main for the fire hydrants!  We are moving
right along on schedule.

construction work at Tipton Airport 


WELCOME TO TIPTON AIRPORT. YOUR GENERAL AVIATION GATEWAY TO THE BALTIMORE WASHINGTON CORRIDOR.

find us Tipton Airport
Recently renovated runways, and a prime position between Washington, D.C. and Baltimore, assure that Tipton Airport is well-equipped to provide exceptional service to residents and businesses of Central Maryland. Tipton is located just south of Fort George G. Meade in Odenton, and is equidistant from Baltimore, Washington, D.C., Annapolis, and Columbia. Immediate access to Maryland’s major roads and freeways (I-95, I-97, Route 32, and MD 295) keeps all of the region within your reach.

For Directions…